Time;durP1;ratioP1;P1;durP2;ratioP2;P2;SDS_P1;SDS_P2;PMS_P1;PMS_P2;Temp;Humidity;BMP_temperature;BMP_pressure;BME280_temperature;BME280_humidity;BME280_pressure;Samples;Min_cycle;Max_cycle;Signal;HPM_P1;HPM_P2
2022/07/28 00:02:01;;;;;;;2.38;1.67;;;17.20;99.90;;;;;;5073397;28;20065;-85
2022/07/28 00:04:26;;;;;;;3.25;1.85;;;17.30;99.90;;;;;;5079040;28;20104;-87
2022/07/28 00:06:52;;;;;;;5.07;1.90;;;17.40;99.90;;;;;;5093019;28;20036;-84
2022/07/28 00:09:18;;;;;;;4.82;1.92;;;17.40;99.90;;;;;;5093684;28;20103;-91
2022/07/28 00:11:43;;;;;;;4.90;1.80;;;17.50;99.90;;;;;;5093142;28;20237;-87
2022/07/28 00:14:10;;;;;;;5.57;1.85;;;17.30;99.90;;;;;;5092945;28;20032;-83
2022/07/28 00:16:36;;;;;;;3.80;2.00;;;17.30;99.90;;;;;;5093521;28;20036;-86
2022/07/28 00:19:02;;;;;;;3.58;2.08;;;17.10;99.90;;;;;;5093414;28;20020;-88
2022/07/28 00:21:28;;;;;;;7.68;2.38;;;17.00;99.90;;;;;;5093487;28;20068;-88
2022/07/28 00:23:53;;;;;;;3.58;2.00;;;16.90;99.90;;;;;;5094499;28;20044;-86
2022/07/28 00:26:19;;;;;;;4.10;2.03;;;16.90;99.90;;;;;;5092785;28;20028;-89
2022/07/28 00:28:45;;;;;;;6.70;2.00;;;16.70;99.90;;;;;;5093279;28;20061;-86
2022/07/28 00:31:10;;;;;;;5.93;2.10;;;16.80;99.90;;;;;;5093469;28;20049;-93
2022/07/28 00:33:36;;;;;;;8.77;2.50;;;16.80;99.90;;;;;;5092388;28;20059;-92
2022/07/28 00:36:02;;;;;;;5.78;2.05;;;16.80;99.90;;;;;;5092544;28;20032;-87
2022/07/28 00:38:28;;;;;;;7.28;2.17;;;16.70;99.90;;;;;;5092520;28;20028;-89
2022/07/28 00:41:12;;;;;;;7.32;2.10;;;16.60;99.90;;;;;;5093318;28;20457;-92
2022/07/28 00:43:43;;;;;;;4.75;2.33;;;16.70;99.90;;;;;;5087573;28;20491;-88
2022/07/28 00:46:09;;;;;;;4.55;2.20;;;16.60;99.90;;;;;;5092867;28;20103;-91
2022/07/28 00:48:39;;;;;;;4.63;2.20;;;16.50;99.90;;;;;;5092991;28;20081;-90
2022/07/28 00:51:08;;;;;;;4.85;2.47;;;16.50;99.90;;;;;;5092627;28;20028;-89
2022/07/28 00:53:34;;;;;;;6.20;2.25;;;16.40;99.90;;;;;;5093752;28;20024;-90
2022/07/28 00:56:00;;;;;;;11.30;2.20;;;16.50;99.90;;;;;;5092536;28;20123;-88
2022/07/28 00:58:27;;;;;;;4.88;2.08;;;16.60;99.90;;;;;;5094120;28;20506;-86
2022/07/28 01:00:53;;;;;;;5.55;2.15;;;16.70;99.90;;;;;;5093115;28;20024;-90
2022/07/28 01:03:19;;;;;;;6.95;2.17;;;16.60;99.90;;;;;;5092876;28;20077;-89
2022/07/28 01:06:01;;;;;;;9.65;2.53;;;16.80;99.90;;;;;;5092838;28;20024;-91
2022/07/28 01:08:44;;;;;;;4.97;1.95;;;16.90;99.90;;;;;;5092832;28;20028;-84
2022/07/28 01:11:28;;;;;;;10.18;2.50;;;17.00;99.90;;;;;;5091821;28;20078;-91
2022/07/28 01:14:25;;;;;;;11.63;2.30;;;17.10;99.90;;;;;;5093647;28;20024;-90
2022/07/28 01:17:25;;;;;;;6.38;2.40;;;17.30;99.90;;;;;;5092109;28;20518;-90
2022/07/28 01:20:08;;;;;;;4.63;1.98;;;16.90;99.90;;;;;;5092213;28;20498;-89
2022/07/28 01:22:58;;;;;;;6.35;2.55;;;16.80;99.90;;;;;;5091867;28;20024;-87
2022/07/28 01:25:33;;;;;;;8.27;2.25;;;16.80;99.90;;;;;;5092995;28;20020;-87
2022/07/28 01:28:23;;;;;;;4.45;2.28;;;16.80;99.90;;;;;;5092500;28;20059;-87
2022/07/28 01:30:55;;;;;;;10.60;2.35;;;16.80;99.90;;;;;;5092151;28;20032;-89
2022/07/28 01:33:49;;;;;;;7.22;2.15;;;17.00;99.90;;;;;;5092190;28;20031;-89
2022/07/28 01:36:25;;;;;;;7.88;2.40;;;17.10;99.90;;;;;;5084046;28;20048;-89
2022/07/28 01:38:51;;;;;;;6.10;2.38;;;17.00;99.90;;;;;;5092128;28;20017;-90
2022/07/28 01:41:23;;;;;;;6.75;2.20;;;16.90;99.90;;;;;;5091796;28;20020;-91
2022/07/28 01:44:03;;;;;;;6.30;2.30;;;17.00;99.90;;;;;;5090676;28;20541;-87
2022/07/28 01:46:29;;;;;;;6.13;2.22;;;17.10;99.90;;;;;;5090355;28;20024;-86
2022/07/28 01:48:57;;;;;;;9.00;2.58;;;16.80;99.90;;;;;;5092829;28;20032;-90
2022/07/28 01:51:26;;;;;;;12.60;2.75;;;16.80;99.90;;;;;;5091508;28;20024;-88
2022/07/28 01:53:53;;;;;;;6.70;2.13;;;16.80;99.90;;;;;;5091488;28;20077;-90
2022/07/28 01:56:21;;;;;;;2.85;2.03;;;16.90;99.90;;;;;;5091433;28;20047;-89
2022/07/28 01:58:49;;;;;;;6.25;2.42;;;17.10;99.90;;;;;;5091864;28;20103;-87
2022/07/28 02:01:16;;;;;;;;;;;17.10;99.90;;;;;;5092140;28;20020;-88
2022/07/28 02:03:43;;;;;;;6.20;2.28;;;17.10;99.90;;;;;;5091317;28;19908;-88
2022/07/28 02:06:11;;;;;;;6.05;2.50;;;17.10;99.90;;;;;;5090596;28;20085;-87
2022/07/28 02:08:38;;;;;;;4.77;2.00;;;17.20;99.90;;;;;;5091591;28;20016;-89
2022/07/28 02:13:50;;;;;;;6.45;2.10;;;17.00;99.90;;;;;;5090260;28;20296;-85
2022/07/28 02:16:18;;;;;;;8.40;2.55;;;17.00;99.90;;;;;;5091186;28;20028;-92
2022/07/28 02:18:45;;;;;;;;;;;17.10;99.90;;;;;;5091897;28;20491;-90
2022/07/28 02:21:11;;;;;;;7.00;2.25;;;16.90;99.90;;;;;;5090140;28;19960;-90
2022/07/28 02:23:38;;;;;;;7.57;2.58;;;16.80;99.90;;;;;;5091481;28;20028;-89
2022/07/28 02:26:08;;;;;;;4.80;2.10;;;16.60;99.90;;;;;;5090603;28;20035;-89
2022/07/28 02:28:36;;;;;;;6.18;2.30;;;16.90;99.90;;;;;;5089571;28;20036;-90
2022/07/28 02:31:08;;;;;;;4.55;2.00;;;17.10;99.90;;;;;;5088546;28;20024;-86
2022/07/28 02:33:34;;;;;;;8.32;2.15;;;17.00;99.90;;;;;;5088420;28;20032;-89
2022/07/28 02:36:16;;;;;;;6.53;2.22;;;17.00;99.90;;;;;;5089670;28;20089;-88
2022/07/28 02:38:45;;;;;;;6.07;2.35;;;16.90;99.90;;;;;;5093619;28;20042;-90
2022/07/28 02:41:35;;;;;;;7.63;2.40;;;16.70;99.90;;;;;;5088841;28;20537;-89
2022/07/28 02:44:06;;;;;;;8.82;2.70;;;16.90;99.90;;;;;;5088683;28;20024;-88
2022/07/28 02:46:41;;;;;;;8.00;2.28;;;16.90;99.90;;;;;;5090245;28;20024;-91
2022/07/28 02:49:12;;;;;;;8.23;2.50;;;16.60;99.90;;;;;;5089813;28;20020;-88
2022/07/28 02:51:41;;;;;;;7.82;2.60;;;16.60;99.90;;;;;;5088587;28;20387;-87
2022/07/28 02:54:07;;;;;;;4.22;2.00;;;16.40;99.90;;;;;;5090331;28;20058;-89
2022/07/28 02:56:34;;;;;;;8.52;2.25;;;16.40;99.90;;;;;;5091032;28;20438;-90
2022/07/28 02:59:01;;;;;;;8.15;2.17;;;16.70;99.90;;;;;;5091185;28;20028;-84
2022/07/28 03:01:27;;;;;;;5.30;2.20;;;16.80;99.90;;;;;;5091820;28;20026;-90
2022/07/28 03:03:53;;;;;;;9.18;2.20;;;16.80;99.90;;;;;;5091677;28;20020;-87
2022/07/28 03:06:21;;;;;;;5.25;2.10;;;16.80;99.90;;;;;;5090623;28;20299;-89
2022/07/28 03:08:49;;;;;;;5.07;2.20;;;16.80;99.90;;;;;;5090663;28;20028;-86
2022/07/28 03:11:15;;;;;;;4.72;2.45;;;16.50;99.90;;;;;;5090001;28;20024;-87
2022/07/28 03:13:41;;;;;;;5.47;2.50;;;16.40;99.90;;;;;;5090669;28;20024;-88
2022/07/28 03:16:08;;;;;;;8.07;2.65;;;16.20;99.90;;;;;;5091145;28;20020;-91
2022/07/28 03:18:33;;;;;;;7.45;2.30;;;16.00;99.90;;;;;;5092300;28;20074;-87
2022/07/28 03:21:00;;;;;;;6.35;2.30;;;16.10;99.90;;;;;;5090797;28;20016;-88
2022/07/28 03:23:39;;;;;;;5.15;2.25;;;16.20;99.90;;;;;;5089886;28;20031;-88
2022/07/28 03:26:14;;;;;;;3.05;2.00;;;16.30;99.90;;;;;;5090305;28;20067;-87
2022/07/28 03:28:41;;;;;;;6.75;2.70;;;16.30;99.90;;;;;;5089812;28;20046;-85
2022/07/28 03:31:10;;;;;;;10.57;3.15;;;16.30;99.90;;;;;;5089602;28;20074;-88
2022/07/28 03:33:37;;;;;;;9.95;2.80;;;16.20;99.90;;;;;;5089663;28;20480;-87
2022/07/28 03:36:07;;;;;;;6.57;2.30;;;16.20;99.90;;;;;;5089339;28;20110;-89
2022/07/28 03:38:37;;;;;;;3.92;2.42;;;16.30;99.90;;;;;;5088240;28;20142;-87
2022/07/28 03:41:06;;;;;;;4.40;2.30;;;16.30;99.90;;;;;;5088570;28;20019;-87
2022/07/28 03:43:33;;;;;;;3.50;1.83;;;16.20;99.90;;;;;;5090571;28;20476;-86
2022/07/28 03:45:59;;;;;;;7.75;2.33;;;16.40;99.90;;;;;;5090796;28;20027;-86
2022/07/28 03:48:29;;;;;;;11.57;2.13;;;16.50;99.90;;;;;;5090175;28;20024;-84
2022/07/28 03:50:55;;;;;;;9.27;2.72;;;16.50;99.90;;;;;;5090110;28;20086;-88
2022/07/28 03:53:24;;;;;;;6.20;2.30;;;16.70;99.90;;;;;;5090648;28;20024;-86
2022/07/28 03:55:50;;;;;;;6.72;2.08;;;16.30;99.90;;;;;;5089375;28;20491;-87
2022/07/28 03:58:20;;;;;;;6.72;2.30;;;16.40;99.90;;;;;;5089027;28;20062;-85
2022/07/28 04:00:47;;;;;;;5.82;2.60;;;16.30;99.90;;;;;;5089316;28;20031;-87
2022/07/28 04:03:12;;;;;;;7.07;2.20;;;16.50;99.90;;;;;;5089795;28;20024;-87
2022/07/28 04:05:38;;;;;;;6.47;2.60;;;15.90;99.90;;;;;;5088434;28;20511;-88
2022/07/28 04:08:05;;;;;;;6.20;2.47;;;16.00;99.90;;;;;;5089220;28;20031;-85
2022/07/28 04:10:30;;;;;;;5.40;2.20;;;15.20;99.90;;;;;;5089818;28;20032;-86
2022/07/28 04:12:57;;;;;;;5.43;2.58;;;16.00;99.90;;;;;;5088346;28;20035;-84
2022/07/28 04:15:25;;;;;;;7.82;2.00;;;16.00;99.90;;;;;;5088681;28;20058;-89
2022/07/28 04:17:52;;;;;;;2.95;2.08;;;16.00;99.90;;;;;;5088076;28;20525;-88
2022/07/28 04:20:19;;;;;;;6.00;2.33;;;16.00;99.90;;;;;;5088788;28;20028;-86
2022/07/28 04:22:46;;;;;;;3.85;2.10;;;16.20;99.90;;;;;;5088945;28;20090;-88
2022/07/28 04:25:13;;;;;;;9.25;2.22;;;16.30;99.90;;;;;;5088454;28;20496;-88
2022/07/28 04:27:40;;;;;;;5.28;2.20;;;16.20;99.90;;;;;;5089227;28;20016;-86
2022/07/28 04:30:11;;;;;;;6.90;2.75;;;16.20;99.90;;;;;;5088818;28;20146;-85
2022/07/28 04:32:40;;;;;;;3.72;1.98;;;16.20;99.90;;;;;;5088877;28;20107;-88
2022/07/28 04:35:07;;;;;;;4.10;2.08;;;16.30;99.90;;;;;;5088494;28;20107;-86
2022/07/28 04:37:33;;;;;;;4.57;2.40;;;16.20;99.90;;;;;;5089507;28;20036;-87
2022/07/28 04:39:59;;;;;;;5.63;2.50;;;15.80;99.90;;;;;;5087449;28;20095;-87
2022/07/28 04:42:24;;;;;;;9.82;2.80;;;15.80;99.90;;;;;;5088801;28;20520;-89
2022/07/28 04:44:50;;;;;;;5.93;2.20;;;15.80;99.90;;;;;;5092166;28;20070;-85
2022/07/28 04:47:16;;;;;;;9.05;2.78;;;15.90;99.90;;;;;;5092499;28;20379;-88
2022/07/28 04:49:42;;;;;;;4.93;2.40;;;16.00;99.90;;;;;;5091213;28;20078;-85
2022/07/28 04:52:08;;;;;;;7.72;2.80;;;16.10;99.90;;;;;;5092160;28;20020;-88
2022/07/28 04:54:34;;;;;;;6.28;2.70;;;15.90;99.90;;;;;;5092907;28;20032;-86
2022/07/28 04:57:01;;;;;;;8.35;2.70;;;15.90;99.90;;;;;;5090592;28;20036;-89
2022/07/28 04:59:27;;;;;;;4.82;2.50;;;15.90;99.90;;;;;;5092047;28;20752;-88
2022/07/28 05:01:52;;;;;;;9.25;3.13;;;15.70;99.90;;;;;;5092008;28;20564;-85
2022/07/28 05:04:18;;;;;;;9.20;2.45;;;15.60;99.90;;;;;;5090633;28;20024;-85
2022/07/28 05:06:44;;;;;;;6.57;2.60;;;15.80;99.90;;;;;;5090760;28;20021;-84
2022/07/28 05:09:10;;;;;;;6.40;2.50;;;15.70;99.90;;;;;;5092134;28;20088;-87
2022/07/28 05:11:36;;;;;;;8.95;2.65;;;15.70;99.90;;;;;;5092739;28;20361;-85
2022/07/28 05:14:02;;;;;;;6.82;2.45;;;15.70;99.90;;;;;;5092618;28;20030;-85
2022/07/28 05:16:27;;;;;;;8.73;2.92;;;15.90;99.90;;;;;;5091853;28;20111;-87
2022/07/28 05:18:53;;;;;;;6.80;2.60;;;15.90;99.90;;;;;;5091753;28;20066;-87
2022/07/28 05:21:19;;;;;;;7.90;2.53;;;15.90;99.90;;;;;;5092161;28;20059;-86
2022/07/28 05:23:44;;;;;;;6.05;2.67;;;15.90;99.90;;;;;;5091661;28;20034;-84
2022/07/28 05:26:10;;;;;;;6.70;2.60;;;15.90;99.90;;;;;;5090384;28;20476;-87
2022/07/28 05:28:36;;;;;;;7.57;2.63;;;16.10;99.90;;;;;;5092467;28;20567;-84
2022/07/28 05:31:02;;;;;;;6.78;2.50;;;16.90;99.90;;;;;;5091608;28;20106;-88
2022/07/28 05:33:28;;;;;;;8.02;2.47;;;16.60;99.90;;;;;;5091622;28;20449;-86
2022/07/28 05:35:58;;;;;;;6.82;2.30;;;16.20;99.90;;;;;;5091380;28;20458;-87
2022/07/28 05:38:27;;;;;;;6.50;2.78;;;16.20;99.90;;;;;;5090442;28;20115;-84
2022/07/28 05:40:53;;;;;;;6.32;2.35;;;16.30;99.90;;;;;;5090203;28;20050;-87
2022/07/28 05:43:19;;;;;;;6.30;2.55;;;16.30;99.90;;;;;;5091911;28;20535;-89
2022/07/28 05:45:46;;;;;;;9.02;3.00;;;15.60;99.90;;;;;;5091408;28;20085;-86
2022/07/28 05:48:11;;;;;;;9.60;2.70;;;16.40;99.90;;;;;;5091507;28;20020;-84
2022/07/28 05:50:37;;;;;;;9.40;2.90;;;16.30;99.90;;;;;;5092431;28;20441;-84
2022/07/28 05:53:03;;;;;;;8.05;2.90;;;16.10;99.90;;;;;;5091401;28;20023;-89
2022/07/28 05:55:29;;;;;;;8.43;2.30;;;;;;;;;;5091415;28;20040;-87
2022/07/28 05:57:56;;;;;;;7.53;2.60;;;16.40;99.90;;;;;;5091197;28;20537;-85
2022/07/28 06:00:22;;;;;;;7.45;2.58;;;16.50;99.90;;;;;;5091179;28;20032;-86
2022/07/28 06:02:49;;;;;;;8.13;2.85;;;16.30;99.90;;;;;;5091171;28;20023;-86
2022/07/28 06:05:16;;;;;;;5.63;2.20;;;16.40;99.90;;;;;;5091336;28;20042;-87
2022/07/28 06:07:43;;;;;;;7.55;2.65;;;16.30;99.90;;;;;;5090987;28;20020;-88
2022/07/28 06:10:10;;;;;;;8.40;2.85;;;16.50;99.90;;;;;;5091606;28;20553;-86
2022/07/28 06:12:48;;;;;;;8.95;2.88;;;16.60;99.90;;;;;;5091875;28;20020;-89
2022/07/28 06:15:16;;;;;;;8.65;2.70;;;16.80;99.90;;;;;;5090970;28;20030;-88
2022/07/28 06:17:42;;;;;;;7.35;2.60;;;16.60;99.90;;;;;;5090680;28;20396;-86
2022/07/28 06:20:08;;;;;;;8.68;2.70;;;16.60;99.90;;;;;;5091925;28;20016;-90
2022/07/28 06:22:42;;;;;;;4.53;2.90;;;16.70;99.90;;;;;;5091271;28;20086;-89
2022/07/28 06:25:15;;;;;;;4.30;2.50;;;16.50;99.90;;;;;;5091884;28;20024;-88
2022/07/28 06:27:43;;;;;;;7.03;2.70;;;16.50;99.90;;;;;;5089545;28;20052;-84
2022/07/28 06:30:09;;;;;;;13.38;2.75;;;16.80;99.90;;;;;;5091495;28;20048;-88
2022/07/28 06:32:35;;;;;;;4.50;2.42;;;16.60;99.90;;;;;;5090392;28;20031;-84
2022/07/28 06:35:01;;;;;;;6.13;2.63;;;16.70;99.90;;;;;;5090243;28;20674;-83
2022/07/28 06:37:26;;;;;;;8.82;2.40;;;16.90;99.90;;;;;;5090659;28;20028;-85
2022/07/28 06:39:52;;;;;;;6.72;2.97;;;16.80;99.90;;;;;;5090659;28;20027;-88
2022/07/28 06:42:18;;;;;;;8.40;2.50;;;16.70;99.90;;;;;;5090887;28;20028;-88
2022/07/28 06:44:43;;;;;;;9.23;2.90;;;17.00;99.90;;;;;;5090590;28;20020;-86
2022/07/28 06:47:09;;;;;;;8.40;2.95;;;17.10;99.90;;;;;;5090805;28;20035;-84
2022/07/28 06:49:35;;;;;;;7.82;2.50;;;17.20;99.90;;;;;;5090591;28;20031;-90
2022/07/28 06:52:00;;;;;;;7.10;2.50;;;17.50;99.90;;;;;;5090713;28;20027;-89
2022/07/28 06:54:26;;;;;;;11.05;2.88;;;;;;;;;;5090508;28;20028;-89
2022/07/28 06:56:52;;;;;;;11.88;2.75;;;17.70;99.90;;;;;;5090624;28;20040;-86
2022/07/28 06:59:18;;;;;;;7.47;2.40;;;17.70;99.90;;;;;;5090384;28;20055;-89
2022/07/28 07:01:44;;;;;;;10.52;2.70;;;17.80;99.90;;;;;;5090163;28;20035;-87
2022/07/28 07:04:10;;;;;;;7.70;2.53;;;17.90;99.90;;;;;;5090199;28;20050;-90
2022/07/28 07:06:35;;;;;;;9.15;2.70;;;17.90;99.90;;;;;;5090515;28;20492;-88
2022/07/28 07:09:01;;;;;;;7.32;2.40;;;17.60;99.90;;;;;;5089686;28;20024;-87
2022/07/28 07:11:27;;;;;;;5.57;2.10;;;17.70;99.90;;;;;;5089162;28;20118;-88
2022/07/28 07:13:53;;;;;;;4.95;2.22;;;17.90;99.90;;;;;;5090083;28;20157;-85
2022/07/28 07:16:19;;;;;;;8.75;2.72;;;;;;;;;;5090240;28;20115;-91
2022/07/28 07:18:47;;;;;;;8.80;2.95;;;18.20;99.90;;;;;;5090336;28;20024;-90
2022/07/28 07:21:13;;;;;;;9.65;2.38;;;18.10;99.90;;;;;;5092474;28;20027;-91
2022/07/28 07:23:39;;;;;;;7.30;2.53;;;18.00;99.90;;;;;;5092925;28;20020;-91
2022/07/28 07:26:04;;;;;;;6.38;2.40;;;18.00;99.90;;;;;;5089416;28;20028;-89
2022/07/28 07:28:30;;;;;;;8.30;2.40;;;18.20;99.90;;;;;;5090265;28;20495;-89
2022/07/28 07:30:56;;;;;;;7.90;2.42;;;18.60;99.90;;;;;;5089831;28;20024;-84
2022/07/28 07:33:22;;;;;;;8.85;2.70;;;18.50;99.90;;;;;;5089920;28;20078;-90
2022/07/28 07:35:47;;;;;;;6.70;2.20;;;18.60;99.90;;;;;;5088267;28;20094;-88
2022/07/28 07:38:13;;;;;;;6.78;2.20;;;18.90;99.90;;;;;;5073253;28;20021;-89
2022/07/28 07:40:39;;;;;;;6.82;2.30;;;19.00;99.90;;;;;;5087247;28;20031;-91
2022/07/28 07:43:04;;;;;;;6.90;2.60;;;18.80;99.90;;;;;;5089101;28;20434;-90
2022/07/28 07:45:30;;;;;;;7.20;2.28;;;18.70;99.90;;;;;;5088771;28;20039;-88
2022/07/28 07:47:56;;;;;;;4.72;2.22;;;18.70;99.90;;;;;;5088594;28;20058;-91
2022/07/28 07:50:22;;;;;;;6.47;2.47;;;18.80;99.90;;;;;;5088961;28;20024;-90
2022/07/28 07:52:50;;;;;;;9.60;2.25;;;19.00;99.90;;;;;;5087848;28;20077;-87
2022/07/28 07:55:16;;;;;;;7.45;2.17;;;19.10;99.90;;;;;;5085205;28;20025;-87
2022/07/28 07:57:43;;;;;;;6.47;2.08;;;19.30;99.90;;;;;;5091442;28;20028;-92
2022/07/28 08:00:09;;;;;;;6.43;2.15;;;19.30;99.90;;;;;;5088082;28;20046;-90
2022/07/28 08:02:38;;;;;;;9.40;2.50;;;19.10;99.90;;;;;;5088464;28;20714;-89
2022/07/28 08:05:05;;;;;;;6.68;2.70;;;19.00;99.90;;;;;;5088183;28;20104;-90
2022/07/28 08:07:30;;;;;;;9.93;2.70;;;19.00;99.90;;;;;;5083402;28;20028;-88
2022/07/28 08:09:56;;;;;;;3.45;2.08;;;19.00;99.90;;;;;;5087270;28;20035;-90
2022/07/28 08:12:22;;;;;;;8.60;2.00;;;19.30;99.90;;;;;;5087603;28;20069;-92
2022/07/28 08:14:47;;;;;;;5.75;2.20;;;19.30;99.90;;;;;;5087441;28;20095;-88
2022/07/28 08:17:13;;;;;;;6.40;2.53;;;19.20;99.90;;;;;;5087647;28;20039;-89
2022/07/28 08:19:38;;;;;;;5.65;2.30;;;19.20;99.90;;;;;;5089725;28;20020;-89
2022/07/28 08:22:04;;;;;;;10.82;2.05;;;19.30;99.90;;;;;;5091005;28;20217;-86
2022/07/28 08:24:30;;;;;;;5.75;1.80;;;19.40;99.90;;;;;;5088293;28;20032;-89
2022/07/28 08:26:56;;;;;;;5.70;2.20;;;19.50;99.90;;;;;;5091182;28;20485;-85
2022/07/28 08:29:21;;;;;;;3.10;1.75;;;19.40;99.90;;;;;;5091740;28;20024;-88
2022/07/28 08:31:47;;;;;;;8.38;2.13;;;19.50;99.90;;;;;;5092715;28;20057;-83
2022/07/28 08:34:13;;;;;;;3.58;2.00;;;19.80;99.90;;;;;;5093485;28;20060;-88
2022/07/28 08:36:38;;;;;;;8.07;2.17;;;19.90;99.90;;;;;;5092574;28;20028;-87
2022/07/28 08:39:04;;;;;;;7.57;2.00;;;19.60;99.90;;;;;;5091270;28;20054;-89
2022/07/28 08:41:41;;;;;;;5.75;2.00;;;19.70;99.90;;;;;;5092499;28;20511;-91
2022/07/28 08:44:12;;;;;;;4.60;1.92;;;19.70;99.90;;;;;;5090960;28;20055;-86
2022/07/28 08:46:40;;;;;;;6.55;1.80;;;19.80;99.90;;;;;;5090706;28;20031;-87
2022/07/28 08:49:08;;;;;;;7.57;1.67;;;20.30;99.90;;;;;;5091465;28;20028;-91
2022/07/28 08:51:33;;;;;;;5.28;1.80;;;20.50;99.90;;;;;;5092201;28;20115;-83
2022/07/28 08:54:01;;;;;;;3.55;1.85;;;20.70;99.90;;;;;;5091702;28;20063;-85
2022/07/28 08:56:27;;;;;;;3.72;1.98;;;20.80;99.90;;;;;;5092024;28;20038;-84
2022/07/28 08:58:53;;;;;;;3.58;1.58;;;20.70;99.90;;;;;;5090632;28;20077;-90
2022/07/28 09:01:21;;;;;;;6.25;2.08;;;20.80;99.90;;;;;;5092090;28;20069;-90
2022/07/28 09:03:47;;;;;;;;;;;20.60;99.90;;;;;;5092771;28;20543;-84
2022/07/28 09:06:14;;;;;;;7.05;1.75;;;20.80;99.90;;;;;;5092916;28;19904;-90
2022/07/28 09:08:39;;;;;;;9.80;1.90;;;21.00;99.90;;;;;;5091603;28;20024;-89
2022/07/28 09:11:06;;;;;;;9.45;2.10;;;21.00;99.90;;;;;;5089910;28;20419;-88
2022/07/28 09:13:34;;;;;;;6.70;2.00;;;21.20;99.90;;;;;;5090044;28;20016;-87
2022/07/28 09:15:59;;;;;;;6.25;1.63;;;21.40;99.90;;;;;;5088984;28;20270;-85
2022/07/28 09:18:25;;;;;;;9.23;1.83;;;21.40;99.90;;;;;;5088631;28;20514;-87
2022/07/28 09:20:51;;;;;;;4.63;1.83;;;21.60;99.90;;;;;;5089042;28;20063;-86
2022/07/28 09:23:16;;;;;;;5.18;1.77;;;21.90;99.90;;;;;;5091061;28;20024;-84
2022/07/28 09:25:42;;;;;;;6.05;1.75;;;22.10;99.90;;;;;;5091838;28;20028;-84
2022/07/28 09:28:13;;;;;;;11.20;1.98;;;22.40;99.90;;;;;;5091915;28;20028;-92
2022/07/28 09:31:01;;;;;;;;;;;;;;;;;;;;;
2022/07/28 09:33:28;;;;;;;7.72;1.88;;;22.10;99.90;;;;;;5090735;28;20510;-90
2022/07/28 09:35:57;;;;;;;4.55;1.70;;;22.50;99.90;;;;;;5090953;28;20032;-92
2022/07/28 09:38:27;;;;;;;3.78;1.70;;;22.80;99.90;;;;;;5092453;28;20062;-88
2022/07/28 09:40:59;;;;;;;6.88;1.73;;;22.80;99.90;;;;;;5093299;28;20487;-88
2022/07/28 09:43:39;;;;;;;5.35;1.52;;;22.90;99.90;;;;;;5086205;28;20613;-87
2022/07/28 09:46:10;;;;;;;3.60;1.50;;;;;;;;;;5084299;28;20032;-91
2022/07/28 09:48:57;;;;;;;5.15;1.73;;;23.30;99.90;;;;;;5089400;28;20032;-89
2022/07/28 09:51:30;;;;;;;5.82;1.70;;;23.40;99.90;;;;;;5092066;28;20024;-87
2022/07/28 09:54:10;;;;;;;7.40;2.00;;;23.60;99.90;;;;;;5089449;28;20024;-90
2022/07/28 09:56:45;;;;;;;6.85;1.63;;;23.50;99.90;;;;;;5090391;28;20032;-84
2022/07/28 09:59:12;;;;;;;5.43;1.40;;;23.70;99.90;;;;;;5092023;28;20500;-87
2022/07/28 10:01:58;;;;;;;3.40;1.63;;;23.40;99.90;;;;;;5096554;28;20082;-85
2022/07/28 10:04:31;;;;;;;10.95;1.85;;;23.50;99.90;;;;;;5097758;28;20028;-89
2022/07/28 10:07:09;;;;;;;5.13;1.60;;;23.80;99.90;;;;;;5103785;28;20552;-85
2022/07/28 10:09:38;;;;;;;9.93;1.80;;;24.00;99.90;;;;;;5087722;28;20020;-93
2022/07/28 10:12:15;;;;;;;12.43;1.88;;;24.20;99.90;;;;;;5089637;28;20119;-94
2022/07/28 10:14:41;;;;;;;11.15;1.52;;;24.30;99.90;;;;;;5091028;28;20040;-91
2022/07/28 10:17:08;;;;;;;6.80;1.60;;;23.70;99.90;;;;;;5090189;28;20068;-93
2022/07/28 10:19:34;;;;;;;7.38;1.63;;;23.80;99.90;;;;;;5070064;28;20052;-90
2022/07/28 10:22:01;;;;;;;9.38;2.00;;;23.70;99.90;;;;;;5070585;28;20107;-91
2022/07/28 10:24:35;;;;;;;4.03;1.70;;;23.60;99.90;;;;;;5075313;28;20017;-85
2022/07/28 10:27:02;;;;;;;3.95;1.50;;;24.10;99.90;;;;;;5091442;28;20028;-91
2022/07/28 10:29:30;;;;;;;6.28;1.63;;;24.10;99.90;;;;;;5091018;28;20068;-88
2022/07/28 10:32:04;;;;;;;5.10;1.40;;;24.20;99.90;;;;;;5091242;28;20020;-87
2022/07/28 10:34:36;;;;;;;5.90;1.50;;;24.20;99.90;;;;;;5089633;28;20371;-90
2022/07/28 10:37:03;;;;;;;6.43;1.70;;;24.30;99.90;;;;;;5092050;28;20044;-84
2022/07/28 10:39:41;;;;;;;5.45;1.60;;;24.20;99.90;;;;;;5089691;28;20038;-84
2022/07/28 10:42:11;;;;;;;7.68;1.60;;;24.10;99.90;;;;;;5090644;28;20030;-88
2022/07/28 10:44:37;;;;;;;6.90;2.05;;;24.30;99.90;;;;;;5091354;28;20031;-86
2022/07/28 10:47:08;;;;;;;12.82;2.17;;;24.30;99.90;;;;;;5089214;28;20024;-92
2022/07/28 10:49:35;;;;;;;8.05;1.80;;;24.30;99.90;;;;;;5089353;28;20020;-89
2022/07/28 10:52:02;;;;;;;5.93;1.60;;;;;;;;;;5088740;28;20032;-90
2022/07/28 10:55:11;;;;;;;3.83;1.50;;;23.90;99.90;;;;;;5089851;28;20294;-90
2022/07/28 10:58:01;;;;;;;6.07;2.00;;;23.90;99.90;;;;;;5019977;28;20042;-90
2022/07/28 11:00:40;;;;;;;3.88;1.42;;;22.90;99.90;;;;;;5048944;28;20496;-91
2022/07/28 11:03:13;;;;;;;7.63;1.88;;;;;;;;;;5090049;28;20114;-90
2022/07/28 11:05:41;;;;;;;6.72;1.50;;;24.30;99.90;;;;;;5089244;28;20028;-89
2022/07/28 11:08:26;;;;;;;7.72;1.63;;;24.40;99.90;;;;;;5089363;28;20020;-89
2022/07/28 11:10:54;;;;;;;4.57;1.42;;;24.60;99.90;;;;;;5087734;28;20036;-91
2022/07/28 11:13:31;;;;;;;3.15;1.45;;;24.70;99.90;;;;;;5085330;28;20028;-89
2022/07/28 11:16:23;;;;;;;3.75;1.60;;;24.80;99.90;;;;;;5081280;28;20032;-92
2022/07/28 11:19:03;;;;;;;6.40;1.80;;;25.00;99.90;;;;;;5077672;28;20420;-89
2022/07/28 11:21:39;;;;;;;4.53;1.80;;;25.00;99.90;;;;;;5091010;28;20031;-92
2022/07/28 11:24:10;;;;;;;7.20;1.90;;;25.00;99.90;;;;;;5067349;28;20051;-90
2022/07/28 11:26:36;;;;;;;6.43;1.52;;;25.30;99.90;;;;;;5078016;28;20020;-88
2022/07/28 11:29:09;;;;;;;4.75;1.60;;;25.40;99.90;;;;;;5080408;28;20028;-89
2022/07/28 11:31:47;;;;;;;4.50;1.60;;;25.10;99.90;;;;;;5081580;28;20535;-90
2022/07/28 11:34:28;;;;;;;;;;;;;;;;;;;;;
2022/07/28 11:37:30;;;;;;;6.82;1.40;;;25.40;99.90;;;;;;5087407;28;20044;-92
2022/07/28 11:39:54;;;;;;;4.05;1.33;;;25.30;99.90;;;;;;5088369;28;20028;-94
2022/07/28 11:43:05;;;;;;;6.65;1.70;;;25.10;99.90;;;;;;5101165;28;20035;-91
2022/07/28 11:45:44;;;;;;;5.13;1.55;;;24.70;99.90;;;;;;5111731;28;20036;-90
2022/07/28 11:52:25;;;;;;;5.65;1.50;;;25.30;99.90;;;;;;5029330;28;20028;-93
2022/07/28 11:54:55;;;;;;;4.88;1.50;;;24.90;99.90;;;;;;5079487;28;20027;-90
2022/07/28 11:57:50;;;;;;;;;;;;;;;;;;;;;
2022/07/28 12:01:06;;;;;;;;;;;;;;;;;;;;;
2022/07/28 12:40:32;;;;;;;2.95;1.40;;;26.00;99.90;;;;;;6270389;22;1417970;-88
2022/07/28 12:42:57;;;;;;;3.80;1.30;;;26.40;99.90;;;;;;6302107;22;20074;-90
2022/07/28 12:45:25;;;;;;;3.53;1.30;;;26.20;99.90;;;;;;6325031;22;20023;-83
2022/07/28 12:47:50;;;;;;;2.97;1.42;;;26.20;99.90;;;;;;6319158;22;20518;-86
2022/07/28 12:50:37;;;;;;;3.08;1.63;;;26.30;99.90;;;;;;6246983;23;20012;-86
2022/07/28 12:53:08;;;;;;;6.05;1.40;;;26.20;99.90;;;;;;6270693;23;20000;-93
2022/07/28 12:55:42;;;;;;;3.53;1.27;;;26.30;99.90;;;;;;6268269;23;20071;-93
2022/07/28 12:58:40;;;;;;;6.85;1.58;;;26.40;99.90;;;;;;6266384;23;20078;-90
2022/07/28 13:01:08;;;;;;;6.10;1.50;;;26.40;99.90;;;;;;6250783;23;20035;-89
2022/07/28 13:03:34;;;;;;;;;;;26.60;99.90;;;;;;6251803;23;20004;-86
2022/07/28 13:06:19;;;;;;;2.65;1.50;;;26.80;99.90;;;;;;6220333;23;19903;-87
2022/07/28 13:08:46;;;;;;;3.58;1.50;;;26.90;99.90;;;;;;6196629;23;20562;-88
2022/07/28 13:11:14;;;;;;;17.63;3.65;;;27.10;99.90;;;;;;6222576;23;20105;-88
2022/07/28 13:13:55;;;;;;;8.57;2.00;;;27.30;99.90;;;;;;6221688;23;20051;-87
2022/07/28 13:16:23;;;;;;;6.55;1.60;;;27.40;99.90;;;;;;6222570;23;20004;-86
2022/07/28 13:18:53;;;;;;;2.97;1.42;;;27.50;99.90;;;;;;6222705;23;20024;-86
2022/07/28 13:21:40;;;;;;;3.58;1.35;;;27.70;99.90;;;;;;6196070;23;20011;-86
2022/07/28 13:24:14;;;;;;;2.40;1.35;;;27.80;99.90;;;;;;6195081;23;20087;-86
2022/07/28 13:26:42;;;;;;;7.45;1.50;;;27.70;99.90;;;;;;6222985;23;20005;-85
2022/07/28 13:29:10;;;;;;;6.72;1.30;;;27.80;99.90;;;;;;6279890;22;20094;-86
2022/07/28 13:31:37;;;;;;;8.95;1.42;;;27.40;99.90;;;;;;6262587;22;20480;-86
2022/07/28 13:34:08;;;;;;;8.98;1.50;;;27.30;99.90;;;;;;6282642;22;20507;-88
2022/07/28 13:36:36;;;;;;;7.38;1.40;;;26.80;99.90;;;;;;6289326;22;20451;-90
2022/07/28 13:39:09;;;;;;;4.63;1.50;;;27.10;99.90;;;;;;6330927;22;20002;-88
2022/07/28 13:41:55;;;;;;;6.22;1.60;;;27.20;99.90;;;;;;6265076;22;20014;-88
2022/07/28 13:44:21;;;;;;;6.93;1.60;;;27.30;99.90;;;;;;6242941;23;20008;-88
2022/07/28 13:46:47;;;;;;;17.92;1.52;;;27.20;99.90;;;;;;6243863;23;20336;-86
2022/07/28 13:49:12;;;;;;;3.30;1.30;;;27.10;99.90;;;;;;6240691;23;20094;-87
2022/07/28 13:51:38;;;;;;;5.68;1.50;;;26.90;99.90;;;;;;6239968;23;20008;-86